createdAt,value
2023-03-08T00:01:00.464Z,15.18
2023-03-08T00:05:54.430Z,16.40
2023-03-08T00:10:47.604Z,17.85
2023-03-08T00:15:41.633Z,18.25
2023-03-08T00:20:35.133Z,18.83
2023-03-08T00:25:28.277Z,20.70
2023-03-08T00:30:21.725Z,20.77
2023-03-08T00:35:14.917Z,14.38
2023-03-08T00:40:12.705Z,17.60
2023-03-08T00:45:05.451Z,16.75
2023-03-08T00:49:59.031Z,17.02
2023-03-08T00:54:52.562Z,16.58
2023-03-08T00:59:45.579Z,17.48
2023-03-08T01:04:39.959Z,17.23
2023-03-08T01:09:33.280Z,16.13
2023-03-08T01:14:26.713Z,14.82
2023-03-08T01:19:19.872Z,22.70
2023-03-08T01:24:13.119Z,12.52
2023-03-08T01:29:07.267Z,20.08
2023-03-08T01:34:01.035Z,17.73
2023-03-08T01:38:53.452Z,13.18
2023-03-08T01:43:47.636Z,18.10
2023-03-08T01:48:54.868Z,27.50
2023-03-08T01:53:47.892Z,17.77
2023-03-08T01:58:41.349Z,15.32
2023-03-08T02:03:34.758Z,18.92
2023-03-08T02:08:29.155Z,16.17
2023-03-08T02:13:22.629Z,13.80
2023-03-08T02:18:15.897Z,11.90
2023-03-08T02:23:18.504Z,10.65
2023-03-08T02:28:10.653Z,12.93
2023-03-08T02:33:03.521Z,10.30
2023-03-08T02:37:56.309Z,11.27
2023-03-08T02:42:53.263Z,19.88
2023-03-08T02:47:46.760Z,14.38
2023-03-08T02:52:41.937Z,9.80
2023-03-08T02:57:35.052Z,8.48
2023-03-08T03:02:29.725Z,15.20
2023-03-08T03:07:24.167Z,9.65
2023-03-08T03:12:18.224Z,15.13
2023-03-08T03:17:10.623Z,8.82
2023-03-08T03:22:04.770Z,8.93
2023-03-08T03:26:59.092Z,6.25
2023-03-08T03:31:56.231Z,9.40
2023-03-08T03:36:49.477Z,7.85
2023-03-08T03:41:42.962Z,8.25
2023-03-08T03:46:38.753Z,6.65
2023-03-08T03:51:34.528Z,8.27
2023-03-08T03:56:42.887Z,10.15
2023-03-08T04:01:36.008Z,6.70
2023-03-08T04:06:37.510Z,8.93
2023-03-08T04:11:38.985Z,6.80
2023-03-08T04:16:37.473Z,7.55
2023-03-08T04:21:34.797Z,7.20
2023-03-08T04:26:28.921Z,12.25
2023-03-08T04:31:28.827Z,7.68
2023-03-08T04:36:25.419Z,10.25
2023-03-08T04:41:22.677Z,6.10
2023-03-08T04:46:33.023Z,6.93
2023-03-08T04:51:27.937Z,10.00
2023-03-08T04:56:24.616Z,7.97
2023-03-08T05:01:20.385Z,9.27
2023-03-08T05:06:14.567Z,8.88
2023-03-08T05:11:07.709Z,7.85
2023-03-08T05:16:05.835Z,8.35
2023-03-08T05:21:01.139Z,10.48
2023-03-08T05:25:57.108Z,9.95
2023-03-08T05:30:50.993Z,7.03
2023-03-08T05:35:44.263Z,8.68
2023-03-08T05:40:39.641Z,10.23
2023-03-08T05:45:33.763Z,6.95
2023-03-08T05:50:26.715Z,8.63
2023-03-08T05:55:19.472Z,7.53
2023-03-08T06:00:15.285Z,9.02
2023-03-08T06:05:15.828Z,15.35
2023-03-08T06:10:13.209Z,12.75
2023-03-08T06:15:08.085Z,12.55
2023-03-08T06:20:03.044Z,15.25
2023-03-08T06:24:59.960Z,8.52
2023-03-08T06:29:59.508Z,15.40
2023-03-08T06:34:52.928Z,17.98
2023-03-08T06:39:46.898Z,8.18
2023-03-08T06:44:40.796Z,13.20
2023-03-08T06:49:35.805Z,14.07
2023-03-08T06:54:29.189Z,10.40
2023-03-08T06:59:22.982Z,10.85
2023-03-08T07:04:18.613Z,14.80
2023-03-08T07:09:11.814Z,9.30
2023-03-08T07:14:04.787Z,18.38
2023-03-08T07:18:58.570Z,19.85
2023-03-08T07:23:53.241Z,20.38
2023-03-08T07:28:49.188Z,15.00
2023-03-08T07:33:43.002Z,12.05
2023-03-08T07:38:36.481Z,18.17
2023-03-08T07:43:29.911Z,21.52
2023-03-08T07:48:46.615Z,18.17
2023-03-08T07:53:39.569Z,18.92
2023-03-08T07:58:32.581Z,16.38
2023-03-08T08:03:26.092Z,19.67
2023-03-08T08:08:19.770Z,10.13
2023-03-08T08:13:14.127Z,5.97
2023-03-08T08:18:07.933Z,8.38
2023-03-08T08:23:02.088Z,11.57
2023-03-08T08:27:55.582Z,6.80
2023-03-08T08:32:48.315Z,9.13
2023-03-08T08:37:41.943Z,9.10
2023-03-08T08:42:36.228Z,9.45
2023-03-08T08:47:30.542Z,13.70
2023-03-08T08:52:24.133Z,11.88
2023-03-08T08:57:17.608Z,12.45
2023-03-08T09:02:11.889Z,12.10
2023-03-08T09:07:04.420Z,8.98
2023-03-08T09:11:57.788Z,16.17
2023-03-08T09:16:50.880Z,14.93
2023-03-08T09:21:43.669Z,11.60
2023-03-08T09:26:37.200Z,18.92
2023-03-08T09:31:29.972Z,16.23
2023-03-08T09:36:23.176Z,27.00
2023-03-08T09:41:27.570Z,19.10
2023-03-08T09:46:25.604Z,12.13
2023-03-08T09:51:19.547Z,13.77
2023-03-08T09:56:21.367Z,15.23
2023-03-08T10:01:34.272Z,15.93
2023-03-08T10:06:45.797Z,15.70
2023-03-08T10:11:46.150Z,14.30
2023-03-08T10:16:47.090Z,13.98
2023-03-08T10:21:41.956Z,22.00
2023-03-08T10:26:35.155Z,15.48
2023-03-08T10:31:33.652Z,13.52
2023-03-08T10:36:26.729Z,22.23
2023-03-08T10:41:19.730Z,19.13
2023-03-08T10:46:14.503Z,15.93
2023-03-08T10:51:22.949Z,14.05
2023-03-08T10:56:27.566Z,12.98
2023-03-08T11:01:34.111Z,16.45
2023-03-08T11:06:27.670Z,13.20
2023-03-08T11:11:20.937Z,14.63
2023-03-08T11:16:49.813Z,15.93
2023-03-08T11:22:06.096Z,12.55
2023-03-08T11:27:19.391Z,13.80
2023-03-08T11:32:46.475Z,13.10
2023-03-08T11:38:17.543Z,11.45
2023-03-08T11:43:10.215Z,15.27
2023-03-08T11:48:45.379Z,13.35
2023-03-08T11:53:58.544Z,12.30
2023-03-08T11:59:06.655Z,9.50
2023-03-08T12:04:08.447Z,19.15
2023-03-08T12:09:31.386Z,17.02
2023-03-08T12:14:31.402Z,11.43
2023-03-08T12:19:40.489Z,12.55
2023-03-08T12:24:51.700Z,13.48
2023-03-08T12:29:54.443Z,20.15
2023-03-08T12:34:48.062Z,14.48
2023-03-08T12:39:41.741Z,16.85
2023-03-08T12:44:34.388Z,8.77
2023-03-08T12:49:37.873Z,12.82
2023-03-08T12:54:33.875Z,14.15
2023-03-08T12:59:50.960Z,17.15
2023-03-08T13:04:44.447Z,10.50
2023-03-08T13:09:41.735Z,17.80
2023-03-08T13:15:06.551Z,13.77
2023-03-08T13:20:11.472Z,13.15
2023-03-08T13:25:34.988Z,15.18
2023-03-08T13:30:52.276Z,14.35
2023-03-08T13:35:55.590Z,18.65
2023-03-08T13:40:55.757Z,11.48
2023-03-08T13:45:49.896Z,14.43
2023-03-08T13:50:44.658Z,13.38
2023-03-08T13:55:44.657Z,15.90
2023-03-08T14:00:38.193Z,12.48
2023-03-08T14:05:42.182Z,12.52
2023-03-08T14:10:45.249Z,14.75
2023-03-08T14:15:40.032Z,15.43
2023-03-08T14:20:33.442Z,20.23
2023-03-08T14:25:31.332Z,11.48
2023-03-08T14:30:26.803Z,16.87
2023-03-08T14:35:36.773Z,13.38
2023-03-08T14:40:35.815Z,11.85
2023-03-08T14:50:51.657Z,14.07
2023-03-08T14:55:45.393Z,22.38
2023-03-08T15:00:49.397Z,11.65
2023-03-08T15:05:42.727Z,15.02
2023-03-08T15:10:37.456Z,15.07
2023-03-08T15:15:30.849Z,15.63
2023-03-08T15:20:25.442Z,14.27
2023-03-08T15:25:38.394Z,17.42
2023-03-08T15:30:32.007Z,16.27
2023-03-08T15:35:24.701Z,16.15
2023-03-08T15:40:23.211Z,13.80
2023-03-08T15:45:21.106Z,8.65
2023-03-08T15:50:19.298Z,9.82
2023-03-08T15:55:14.830Z,10.55
2023-03-08T16:00:09.923Z,4.30
2023-03-08T16:05:06.246Z,9.32
2023-03-08T16:09:59.682Z,15.45
2023-03-08T16:14:56.016Z,4.25
2023-03-08T16:19:52.410Z,6.90
2023-03-08T16:24:50.037Z,4.25
2023-03-08T16:29:44.215Z,5.00
2023-03-08T16:34:42.159Z,5.30
2023-03-08T16:39:37.388Z,7.57
2023-03-08T16:44:33.160Z,9.00
2023-03-08T16:49:33.114Z,24.85
2023-03-08T16:59:24.021Z,2.75
2023-03-08T17:04:20.708Z,9.20
2023-03-08T17:09:18.184Z,8.27
2023-03-08T17:14:15.349Z,7.53
2023-03-08T17:19:11.564Z,6.80
2023-03-08T17:24:29.409Z,4.53
2023-03-08T17:29:24.404Z,6.03
2023-03-08T17:34:18.618Z,3.78
2023-03-08T17:39:11.891Z,7.85
2023-03-08T17:44:05.171Z,2.72
2023-03-08T17:48:58.461Z,7.05
2023-03-08T17:53:52.415Z,5.93
2023-03-08T17:58:45.816Z,12.20
2023-03-08T18:03:39.094Z,3.50
2023-03-08T18:08:33.201Z,8.75
2023-03-08T18:13:26.355Z,4.32
2023-03-08T18:18:19.964Z,4.45
2023-03-08T18:23:13.663Z,10.35
2023-03-08T18:28:06.993Z,5.70
2023-03-08T18:33:01.020Z,2.35
2023-03-08T18:37:54.605Z,3.20
2023-03-08T18:42:48.529Z,3.50
2023-03-08T18:47:40.838Z,3.65
2023-03-08T18:52:34.509Z,7.70
2023-03-08T18:57:27.563Z,6.47
2023-03-08T19:02:23.589Z,4.40
2023-03-08T19:07:17.334Z,6.65
2023-03-08T19:12:11.162Z,4.68
2023-03-08T19:17:04.488Z,5.75
2023-03-08T19:21:56.858Z,5.47
2023-03-08T19:26:52.774Z,3.65
2023-03-08T19:31:56.704Z,3.28
2023-03-08T19:36:50.184Z,4.53
2023-03-08T19:41:44.999Z,6.50
2023-03-08T19:46:39.817Z,9.10
2023-03-08T19:51:33.369Z,12.43
2023-03-08T19:56:27.683Z,22.02
2023-03-08T20:01:21.592Z,18.40
2023-03-08T20:06:32.671Z,18.90
2023-03-08T20:11:25.846Z,22.65
2023-03-08T20:16:19.828Z,25.27
2023-03-08T20:21:13.451Z,19.25
2023-03-08T20:26:07.213Z,25.55
2023-03-08T20:31:01.633Z,22.60
2023-03-08T20:36:17.671Z,22.90
2023-03-08T20:41:13.995Z,27.75
2023-03-08T20:46:09.932Z,29.48
2023-03-08T20:51:05.868Z,28.55
2023-03-08T20:55:59.768Z,30.75
2023-03-08T21:00:53.850Z,47.80
2023-03-08T21:05:47.490Z,25.27
2023-03-08T21:10:41.838Z,22.25
2023-03-08T21:15:35.266Z,21.80
2023-03-08T21:20:28.523Z,21.13
2023-03-08T21:25:22.289Z,18.20
2023-03-08T21:30:16.916Z,18.25
2023-03-08T21:35:11.910Z,23.67
2023-03-08T21:40:08.249Z,21.48
2023-03-08T21:45:01.461Z,22.90
2023-03-08T21:49:56.070Z,18.88
2023-03-08T21:54:49.899Z,14.88
2023-03-08T21:59:43.634Z,21.83
2023-03-08T22:04:38.619Z,22.38
2023-03-08T22:09:33.374Z,20.88
2023-03-08T22:14:27.242Z,19.25
2023-03-08T22:19:21.698Z,14.27
2023-03-08T22:24:15.414Z,17.65
2023-03-08T22:29:08.649Z,19.95
2023-03-08T22:34:02.889Z,16.58
2023-03-08T22:38:55.924Z,15.40
2023-03-08T22:43:50.155Z,12.63
2023-03-08T22:48:44.683Z,17.88
2023-03-08T22:53:37.744Z,18.02
2023-03-08T22:58:31.193Z,15.50
2023-03-08T23:03:26.153Z,11.93
2023-03-08T23:08:22.320Z,13.80
2023-03-08T23:13:32.645Z,18.17
2023-03-08T23:23:20.448Z,16.02
2023-03-08T23:28:13.829Z,14.60
2023-03-08T23:33:07.496Z,11.90
2023-03-08T23:38:01.852Z,17.90
2023-03-08T23:42:55.478Z,13.48
2023-03-08T23:47:49.070Z,13.43
2023-03-08T23:52:43.064Z,18.00
2023-03-08T23:57:36.891Z,19.42
